createdAt,value
2022-08-17T00:00:34.750Z,8.7
2022-08-17T00:05:25.100Z,8.3
2022-08-17T00:10:25.098Z,7.1
2022-08-17T00:15:25.107Z,10.8
2022-08-17T00:20:30.529Z,10.8
2022-08-17T00:25:25.122Z,9.9
2022-08-17T00:30:25.120Z,9.1
2022-08-17T00:35:25.096Z,9.5
2022-08-17T00:40:25.098Z,10
2022-08-17T00:45:25.099Z,10.4
2022-08-17T00:50:25.113Z,9.2
2022-08-17T00:55:25.108Z,9.2
2022-08-17T01:00:25.096Z,7.8
2022-08-17T01:05:25.368Z,8
2022-08-17T01:10:57.957Z,9
2022-08-17T01:15:25.099Z,8.6
2022-08-17T01:20:25.096Z,8.5
2022-08-17T01:25:25.114Z,10.2
2022-08-17T01:30:57.536Z,8.1
2022-08-17T01:35:25.116Z,7.5
2022-08-17T01:40:25.103Z,7.4
2022-08-17T01:45:25.104Z,8.9
2022-08-17T01:50:25.104Z,9.5
2022-08-17T01:55:27.386Z,7.5
2022-08-17T02:00:25.117Z,6.5
2022-08-17T02:05:25.107Z,7.3
2022-08-17T02:10:25.108Z,9.2
2022-08-17T02:15:25.098Z,8
2022-08-17T02:20:36.372Z,8.9
2022-08-17T02:25:25.098Z,8.8
2022-08-17T02:31:00.587Z,8.2
2022-08-17T02:35:25.104Z,8.3
2022-08-17T02:40:32.829Z,8.8
2022-08-17T02:45:25.119Z,8.4
2022-08-17T02:50:25.110Z,7.3
2022-08-17T02:55:25.105Z,8.2
2022-08-17T03:00:25.093Z,8
2022-08-17T03:05:25.103Z,8.7
2022-08-17T03:10:25.111Z,9.1
2022-08-17T03:15:25.105Z,8.9
2022-08-17T03:20:25.091Z,8.1
2022-08-17T03:25:25.104Z,7.8
2022-08-17T03:30:25.103Z,8.4
2022-08-17T03:35:25.099Z,9.1
2022-08-17T03:40:34.698Z,7.4
2022-08-17T03:45:25.099Z,7.3
2022-08-17T03:50:25.093Z,7.9
2022-08-17T03:55:29.416Z,7.9
2022-08-17T04:00:25.096Z,6.9
2022-08-17T04:05:25.104Z,8
2022-08-17T04:10:26.448Z,8.3
2022-08-17T04:15:25.102Z,8
2022-08-17T04:20:25.108Z,7.3
2022-08-17T04:25:25.102Z,7
2022-08-17T04:30:25.298Z,7.9
2022-08-17T04:35:25.107Z,8.1
2022-08-17T04:40:27.118Z,7.5
2022-08-17T04:45:25.103Z,9.1
2022-08-17T04:50:25.099Z,9.2
2022-08-17T04:55:25.102Z,8.4
2022-08-17T05:00:25.098Z,6.6
2022-08-17T05:05:25.100Z,7.3
2022-08-17T05:10:25.093Z,6.6
2022-08-17T05:15:25.103Z,0
2022-08-17T05:20:25.090Z,7.7
2022-08-17T05:25:25.678Z,5.8
2022-08-17T05:30:25.096Z,8.8
2022-08-17T05:35:25.101Z,10.8
2022-08-17T05:40:25.103Z,9.6
2022-08-17T05:45:54.293Z,9.6
2022-08-17T05:50:27.057Z,9.7
2022-08-17T05:55:25.100Z,9.3
2022-08-17T06:00:26.408Z,11.9
2022-08-17T06:05:25.102Z,10.5
2022-08-17T06:10:25.102Z,9.8
2022-08-17T06:15:25.105Z,11.5
2022-08-17T06:20:25.094Z,8.9
2022-08-17T06:25:25.109Z,10.9
2022-08-17T06:30:25.100Z,10.3
2022-08-17T06:35:27.771Z,10.5
2022-08-17T06:40:25.102Z,10.7
2022-08-17T06:45:25.112Z,10.1
2022-08-17T06:50:25.099Z,8
2022-08-17T06:55:25.105Z,9.6
2022-08-17T07:00:25.098Z,10.1
2022-08-17T07:05:25.093Z,10.3
2022-08-17T07:10:25.147Z,8.1
2022-08-17T07:15:25.099Z,11.1
2022-08-17T07:20:25.167Z,8.8
2022-08-17T07:25:25.109Z,9.8
2022-08-17T07:30:25.349Z,7.4
2022-08-17T07:35:25.105Z,9.8
2022-08-17T07:40:25.207Z,6.3
2022-08-17T07:45:25.110Z,6.2
2022-08-17T07:50:25.909Z,9.2
2022-08-17T07:55:25.116Z,12.3
2022-08-17T08:00:31.387Z,11.9
2022-08-17T08:05:46.721Z,10.6
2022-08-17T08:10:25.098Z,9.5
2022-08-17T08:15:25.101Z,13.7
2022-08-17T08:20:42.422Z,9.4
2022-08-17T08:25:25.350Z,7.4
2022-08-17T08:30:25.116Z,7.4
2022-08-17T08:35:25.094Z,10.4
2022-08-17T08:40:25.105Z,8.6
2022-08-17T08:45:25.107Z,10.5
2022-08-17T08:50:30.355Z,12.8
2022-08-17T08:55:25.101Z,9.6
2022-08-17T09:00:25.103Z,10.9
2022-08-17T09:05:25.099Z,9.5
2022-08-17T09:10:25.097Z,10.3
2022-08-17T09:15:25.101Z,9.9
2022-08-17T09:20:27.860Z,9.6
2022-08-17T09:25:25.101Z,10.8
2022-08-17T09:30:25.097Z,9.8
2022-08-17T09:35:25.130Z,8.5
2022-08-17T09:40:25.091Z,8.4
2022-08-17T09:45:25.100Z,10.7
2022-08-17T09:50:55.753Z,9.4
2022-08-17T09:55:25.099Z,8.9
2022-08-17T10:00:25.121Z,7.9
2022-08-17T10:05:25.100Z,10.2
2022-08-17T10:10:25.106Z,10.2
2022-08-17T10:15:25.101Z,7.3
2022-08-17T10:20:25.094Z,10.7
2022-08-17T10:25:33.418Z,9.2
2022-08-17T10:30:25.089Z,13
2022-08-17T10:35:25.126Z,9.1
2022-08-17T10:40:26.350Z,17.7
2022-08-17T10:45:25.106Z,21.5
2022-08-17T10:50:25.098Z,17.5
2022-08-17T10:55:25.108Z,18.5
2022-08-17T11:00:27.593Z,18.5
2022-08-17T11:05:25.095Z,19.6
2022-08-17T11:10:25.087Z,19.6
2022-08-17T11:15:25.103Z,14.8
2022-08-17T11:20:25.102Z,14.8
2022-08-17T11:25:25.099Z,16
2022-08-17T11:30:26.619Z,18.4
2022-08-17T11:35:25.096Z,18.2
2022-08-17T11:40:25.092Z,17.9
2022-08-17T11:45:32.026Z,23.9
2022-08-17T11:50:27.823Z,17
2022-08-17T11:55:34.962Z,11.7
2022-08-17T12:00:25.103Z,11.9
2022-08-17T12:05:25.113Z,19.3
2022-08-17T12:10:25.094Z,22.7
2022-08-17T12:15:25.102Z,19.3
2022-08-17T12:20:25.097Z,24.9
2022-08-17T12:25:25.105Z,23.7
2022-08-17T12:30:25.102Z,26.1
2022-08-17T12:35:25.098Z,22.1
2022-08-17T12:40:25.091Z,24.4
2022-08-17T12:45:25.095Z,25.6
2022-08-17T12:50:28.390Z,33
2022-08-17T12:55:25.100Z,27.8
2022-08-17T13:00:25.099Z,28.6
2022-08-17T13:05:25.094Z,23.9
2022-08-17T13:10:28.715Z,27.2
2022-08-17T13:15:25.102Z,21
2022-08-17T13:20:25.092Z,21
2022-08-17T13:25:25.101Z,19.1
2022-08-17T13:30:25.119Z,18.1
2022-08-17T13:35:28.502Z,18.2
2022-08-17T13:40:25.114Z,14.6
2022-08-17T13:45:31.114Z,14.4
2022-08-17T13:50:25.102Z,12.9
2022-08-17T13:55:25.088Z,14.8
2022-08-17T14:00:25.101Z,14.2
2022-08-17T14:05:25.103Z,11.1
2022-08-17T14:10:25.102Z,12.7
2022-08-17T14:15:25.093Z,10
2022-08-17T14:20:25.098Z,10.8
2022-08-17T14:25:25.098Z,6.3
2022-08-17T14:30:25.097Z,9.4
2022-08-17T14:35:25.089Z,13.3
2022-08-17T14:40:25.286Z,8.3
2022-08-17T14:45:27.179Z,7.6
2022-08-17T14:50:25.086Z,9.4
2022-08-17T14:55:25.101Z,7.6
2022-08-17T15:00:25.092Z,7.6
2022-08-17T15:05:25.097Z,8.5
2022-08-17T15:10:26.031Z,7.5
2022-08-17T15:15:25.105Z,5.5
2022-08-17T15:20:25.096Z,6
2022-08-17T15:25:25.100Z,4.2
2022-08-17T15:30:25.098Z,6.4
2022-08-17T15:35:26.839Z,0
2022-08-17T15:40:25.132Z,6.7
2022-08-17T15:45:25.098Z,7
2022-08-17T15:50:25.092Z,5.9
2022-08-17T15:55:25.099Z,6.8
2022-08-17T16:00:25.096Z,0
2022-08-17T16:05:25.285Z,7.7
2022-08-17T16:10:35.523Z,9.4
2022-08-17T16:15:25.098Z,11.4
2022-08-17T16:20:25.109Z,8.4
2022-08-17T16:25:38.240Z,8.7
2022-08-17T16:30:25.092Z,7.9
2022-08-17T16:35:25.104Z,8.2
2022-08-17T16:40:25.101Z,8.3
2022-08-17T16:45:25.099Z,5.3
2022-08-17T16:50:25.099Z,4
2022-08-17T16:55:25.102Z,7.8
2022-08-17T17:00:25.095Z,7.8
2022-08-17T17:05:25.094Z,7.8
2022-08-17T17:10:25.110Z,7.8
2022-08-17T17:15:25.098Z,6.3
2022-08-17T17:20:25.093Z,6.3
2022-08-17T17:25:25.097Z,10.6
2022-08-17T17:30:25.097Z,11.7
2022-08-17T17:35:25.106Z,13.5
2022-08-17T17:40:25.099Z,9.1
2022-08-17T17:45:25.110Z,9.3
2022-08-17T17:50:25.105Z,9.3
2022-08-17T17:55:25.106Z,8.9
2022-08-17T18:00:25.095Z,9
2022-08-17T18:05:25.098Z,9
2022-08-17T18:10:29.405Z,8.2
2022-08-17T18:15:25.099Z,8.9
2022-08-17T18:20:32.574Z,8
2022-08-17T18:25:25.103Z,9.1
2022-08-17T18:30:25.098Z,7.1
2022-08-17T18:35:25.105Z,6
2022-08-17T18:40:25.106Z,7.7
2022-08-17T18:45:25.110Z,8.4
2022-08-17T18:50:25.091Z,9.7
2022-08-17T18:55:25.108Z,9.6
2022-08-17T19:00:25.095Z,10.8
2022-08-17T19:05:25.101Z,9.4
2022-08-17T19:10:25.095Z,10.8
2022-08-17T19:15:25.106Z,8.4
2022-08-17T19:20:25.106Z,8.3
2022-08-17T19:25:25.092Z,10.4
2022-08-17T19:30:25.101Z,9.8
2022-08-17T19:35:25.095Z,9.6
2022-08-17T19:40:50.885Z,10.8
2022-08-17T19:45:25.100Z,9.4
2022-08-17T19:50:25.097Z,9.8
2022-08-17T19:55:25.106Z,7.5
2022-08-17T20:00:25.099Z,6.7
2022-08-17T20:05:25.094Z,8.2
2022-08-17T20:10:25.115Z,8.9
2022-08-17T20:15:25.101Z,8.3
2022-08-17T20:20:25.118Z,7.2
2022-08-17T20:25:30.240Z,6.2
2022-08-17T20:30:25.097Z,4.7
2022-08-17T20:35:25.097Z,7.9
2022-08-17T20:40:25.097Z,7.4
2022-08-17T20:45:25.099Z,7.6
2022-08-17T20:50:25.094Z,8.1
2022-08-17T20:55:25.110Z,8.1
2022-08-17T21:00:25.089Z,7.2
2022-08-17T21:05:25.101Z,5.9
2022-08-17T21:10:25.088Z,7.6
2022-08-17T21:15:25.094Z,7.6
2022-08-17T21:20:25.097Z,6.9
2022-08-17T21:25:25.112Z,6.7
2022-08-17T21:30:25.102Z,7.5
2022-08-17T21:35:25.108Z,6
2022-08-17T21:40:25.134Z,5.1
2022-08-17T21:45:25.102Z,7.8
2022-08-17T21:50:25.106Z,6.5
2022-08-17T21:55:25.121Z,6.4
2022-08-17T22:00:25.103Z,6.3
2022-08-17T22:05:25.131Z,5.9
2022-08-17T22:10:25.097Z,5.9
2022-08-17T22:15:25.104Z,7.5
2022-08-17T22:20:25.094Z,6.2
2022-08-17T22:25:25.110Z,0
2022-08-17T22:30:25.183Z,0
2022-08-17T22:35:25.106Z,6.4
2022-08-17T22:40:25.100Z,6.4
2022-08-17T22:45:25.105Z,6
2022-08-17T22:50:25.114Z,4.5
2022-08-17T22:55:25.100Z,6.4
2022-08-17T23:00:25.116Z,5.3
2022-08-17T23:05:25.099Z,0
2022-08-17T23:10:25.099Z,0
2022-08-17T23:15:25.106Z,0
2022-08-17T23:20:25.100Z,4.9
2022-08-17T23:25:25.099Z,6.9
2022-08-17T23:30:25.096Z,7.6
2022-08-17T23:35:39.511Z,7.5
2022-08-17T23:40:25.099Z,7.8
2022-08-17T23:45:25.107Z,9.5
2022-08-17T23:50:25.099Z,9.1
2022-08-17T23:55:25.110Z,9.5
